sensor_id;sensor_type;location;lat;lon;timestamp;pressure;altitude;pressure_sealevel;temperature;humidity
22582;BME280;47125;48.542;9.052;2024-02-15T00:05:08;96431.06;;;11.73;76.89
22582;BME280;47125;48.542;9.052;2024-02-15T00:15:11;96435.00;;;11.82;76.07
22582;BME280;47125;48.542;9.052;2024-02-15T00:25:14;96439.91;;;11.85;76.11
22582;BME280;47125;48.542;9.052;2024-02-15T00:35:18;96434.09;;;11.77;76.06
22582;BME280;47125;48.542;9.052;2024-02-15T00:45:21;96436.63;;;11.72;76.25
22582;BME280;47125;48.542;9.052;2024-02-15T00:55:25;96438.25;;;11.84;75.49
22582;BME280;47125;48.542;9.052;2024-02-15T01:05:28;96414.06;;;11.79;75.36
22582;BME280;47125;48.542;9.052;2024-02-15T01:15:33;96411.59;;;11.66;75.84
22582;BME280;47125;48.542;9.052;2024-02-15T01:25:36;96411.13;;;11.57;75.93
22582;BME280;47125;48.542;9.052;2024-02-15T01:35:42;96401.63;;;11.50;76.15
22582;BME280;47125;48.542;9.052;2024-02-15T01:45:45;96407.06;;;11.43;76.32
22582;BME280;47125;48.542;9.052;2024-02-15T01:55:49;96400.19;;;11.36;76.31
22582;BME280;47125;48.542;9.052;2024-02-15T02:05:52;96396.22;;;11.27;76.99
22582;BME280;47125;48.542;9.052;2024-02-15T02:15:56;96394.47;;;11.09;77.51
22582;BME280;47125;48.542;9.052;2024-02-15T02:26:02;96395.72;;;10.95;77.97
22582;BME280;47125;48.542;9.052;2024-02-15T02:36:05;96391.75;;;10.74;78.96
22582;BME280;47125;48.542;9.052;2024-02-15T02:46:12;96392.84;;;10.67;79.73
22582;BME280;47125;48.542;9.052;2024-02-15T02:56:15;96377.94;;;10.77;78.65
22582;BME280;47125;48.542;9.052;2024-02-15T03:06:21;96388.03;;;10.75;78.58
22582;BME280;47125;48.542;9.052;2024-02-15T03:16:26;96381.25;;;10.73;78.72
22582;BME280;47125;48.542;9.052;2024-02-15T03:26:31;96379.47;;;10.55;79.54
22582;BME280;47125;48.542;9.052;2024-02-15T03:36:38;96383.13;;;10.42;79.94
22582;BME280;47125;48.542;9.052;2024-02-15T03:46:42;96378.16;;;10.46;79.68
22582;BME280;47125;48.542;9.052;2024-02-15T03:56:47;96385.22;;;10.40;79.68
22582;BME280;47125;48.542;9.052;2024-02-15T04:06:54;96391.75;;;10.44;80.32
22582;BME280;47125;48.542;9.052;2024-02-15T04:16:56;96394.13;;;10.34;81.32
22582;BME280;47125;48.542;9.052;2024-02-15T04:27:02;96386.94;;;10.35;80.84
22582;BME280;47125;48.542;9.052;2024-02-15T04:37:04;96389.78;;;10.22;81.15
22582;BME280;47125;48.542;9.052;2024-02-15T04:47:10;96377.41;;;10.27;80.52
22582;BME280;47125;48.542;9.052;2024-02-15T04:57:12;96368.81;;;10.25;80.57
22582;BME280;47125;48.542;9.052;2024-02-15T05:07:16;96363.53;;;10.19;80.40
22582;BME280;47125;48.542;9.052;2024-02-15T05:17:19;96363.34;;;10.20;80.19
22582;BME280;47125;48.542;9.052;2024-02-15T05:27:24;96362.19;;;10.10;79.70
22582;BME280;47125;48.542;9.052;2024-02-15T05:37:27;96366.59;;;9.86;80.35
22582;BME280;47125;48.542;9.052;2024-02-15T05:47:31;96362.22;;;9.73;80.04
22582;BME280;47125;48.542;9.052;2024-02-15T05:57:34;96361.63;;;9.71;81.13
22582;BME280;47125;48.542;9.052;2024-02-15T06:07:37;96374.53;;;9.74;80.49
22582;BME280;47125;48.542;9.052;2024-02-15T06:17:41;96374.53;;;9.74;80.68
22582;BME280;47125;48.542;9.052;2024-02-15T06:27:46;96374.84;;;9.66;80.98
22582;BME280;47125;48.542;9.052;2024-02-15T06:37:49;96367.34;;;9.57;80.89
22582;BME280;47125;48.542;9.052;2024-02-15T06:48:11;96356.69;;;9.57;80.33
22582;BME280;47125;48.542;9.052;2024-02-15T06:58:14;96349.56;;;9.51;81.03
22582;BME280;47125;48.542;9.052;2024-02-15T07:08:19;96351.78;;;9.54;81.09
22582;BME280;47125;48.542;9.052;2024-02-15T07:18:21;96342.97;;;9.53;81.34
22582;BME280;47125;48.542;9.052;2024-02-15T07:28:31;96355.66;;;9.76;81.35
22582;BME280;47125;48.542;9.052;2024-02-15T07:38:33;96341.63;;;9.98;80.22
22582;BME280;47125;48.542;9.052;2024-02-15T07:48:37;96330.50;;;10.20;79.41
22582;BME280;47125;48.542;9.052;2024-02-15T07:58:42;96315.97;;;10.16;79.42
22582;BME280;47125;48.542;9.052;2024-02-15T08:08:53;96310.16;;;10.19;78.53
22582;BME280;47125;48.542;9.052;2024-02-15T08:18:56;96289.78;;;10.24;78.82
22582;BME280;47125;48.542;9.052;2024-02-15T08:29:01;96290.84;;;10.35;79.32
22582;BME280;47125;48.542;9.052;2024-02-15T08:39:04;96282.41;;;10.49;77.98
22582;BME280;47125;48.542;9.052;2024-02-15T08:49:08;96267.69;;;10.59;77.80
22582;BME280;47125;48.542;9.052;2024-02-15T08:59:13;96266.19;;;10.74;77.00
22582;BME280;47125;48.542;9.052;2024-02-15T09:09:18;96262.47;;;10.98;76.93
22582;BME280;47125;48.542;9.052;2024-02-15T09:19:20;96248.28;;;11.21;74.98
22582;BME280;47125;48.542;9.052;2024-02-15T09:29:24;96232.00;;;11.34;74.92
22582;BME280;47125;48.542;9.052;2024-02-15T09:39:26;96232.88;;;11.51;73.83
22582;BME280;47125;48.542;9.052;2024-02-15T09:49:31;96224.47;;;11.71;73.88
22582;BME280;47125;48.542;9.052;2024-02-15T09:59:36;96219.22;;;12.04;73.42
22582;BME280;47125;48.542;9.052;2024-02-15T10:09:41;96216.31;;;12.56;72.91
22582;BME280;47125;48.542;9.052;2024-02-15T10:19:44;96205.41;;;12.96;69.77
22582;BME280;47125;48.542;9.052;2024-02-15T10:29:49;96191.31;;;13.44;67.97
22582;BME280;47125;48.542;9.052;2024-02-15T10:39:59;96180.59;;;13.92;65.72
22582;BME280;47125;48.542;9.052;2024-02-15T10:50:08;96186.50;;;14.48;63.52
22582;BME280;47125;48.542;9.052;2024-02-15T11:00:12;96176.09;;;14.98;61.80
22582;BME280;47125;48.542;9.052;2024-02-15T11:10:23;96169.13;;;15.54;60.46
22582;BME280;47125;48.542;9.052;2024-02-15T11:20:45;96157.41;;;16.11;58.04
22582;BME280;47125;48.542;9.052;2024-02-15T11:30:49;96149.38;;;16.46;56.33
22582;BME280;47125;48.542;9.052;2024-02-15T11:41:04;96136.31;;;17.24;54.02
22582;BME280;47125;48.542;9.052;2024-02-15T11:51:09;96128.59;;;17.61;52.30
22582;BME280;47125;48.542;9.052;2024-02-15T12:01:13;96111.44;;;17.86;51.34
22582;BME280;47125;48.542;9.052;2024-02-15T12:11:34;96102.63;;;18.43;50.64
22582;BME280;47125;48.542;9.052;2024-02-15T12:21:54;96088.47;;;18.85;49.57
22582;BME280;47125;48.542;9.052;2024-02-15T12:31:59;96074.44;;;18.78;49.69
22582;BME280;47125;48.542;9.052;2024-02-15T12:42:02;96067.88;;;18.60;48.63
22582;BME280;47125;48.542;9.052;2024-02-15T13:02:38;96047.41;;;18.78;48.52
22582;BME280;47125;48.542;9.052;2024-02-15T13:12:41;96030.63;;;18.99;48.44
22582;BME280;47125;48.542;9.052;2024-02-15T13:22:46;96015.50;;;18.75;47.91
22582;BME280;47125;48.542;9.052;2024-02-15T13:32:49;96005.31;;;18.09;48.64
22582;BME280;47125;48.542;9.052;2024-02-15T13:42:55;96001.22;;;17.83;49.89
22582;BME280;47125;48.542;9.052;2024-02-15T13:53:00;95996.44;;;17.75;50.57
22582;BME280;47125;48.542;9.052;2024-02-15T14:03:04;95975.50;;;17.56;52.17
22582;BME280;47125;48.542;9.052;2024-02-15T14:13:08;95953.69;;;17.48;52.51
22582;BME280;47125;48.542;9.052;2024-02-15T14:23:13;95946.31;;;17.58;53.21
22582;BME280;47125;48.542;9.052;2024-02-15T14:33:16;95946.50;;;17.67;52.43
22582;BME280;47125;48.542;9.052;2024-02-15T14:43:24;95938.66;;;17.71;52.05
22582;BME280;47125;48.542;9.052;2024-02-15T14:53:28;95940.28;;;17.72;52.21
22582;BME280;47125;48.542;9.052;2024-02-15T15:03:32;95934.47;;;17.54;52.18
22582;BME280;47125;48.542;9.052;2024-02-15T15:13:39;95934.03;;;17.37;51.54
22582;BME280;47125;48.542;9.052;2024-02-15T15:23:43;95939.09;;;17.05;52.63
22582;BME280;47125;48.542;9.052;2024-02-15T15:33:46;95931.13;;;16.85;54.25
22582;BME280;47125;48.542;9.052;2024-02-15T15:43:50;95914.28;;;16.49;54.86
22582;BME280;47125;48.542;9.052;2024-02-15T15:53:53;95915.09;;;16.44;57.11
22582;BME280;47125;48.542;9.052;2024-02-15T16:03:57;95903.03;;;16.27;58.06
22582;BME280;47125;48.542;9.052;2024-02-15T16:14:00;95898.28;;;16.04;59.03
22582;BME280;47125;48.542;9.052;2024-02-15T16:24:04;95886.19;;;15.81;59.46
22582;BME280;47125;48.542;9.052;2024-02-15T16:34:06;95888.91;;;15.61;60.33
22582;BME280;47125;48.542;9.052;2024-02-15T16:44:11;95895.34;;;15.44;60.89
22582;BME280;47125;48.542;9.052;2024-02-15T16:54:13;95876.25;;;15.26;61.60
22582;BME280;47125;48.542;9.052;2024-02-15T17:04:17;95880.53;;;15.12;62.06
22582;BME280;47125;48.542;9.052;2024-02-15T17:14:19;95877.03;;;14.96;62.58
22582;BME280;47125;48.542;9.052;2024-02-15T17:24:24;95881.59;;;14.85;63.06
22582;BME280;47125;48.542;9.052;2024-02-15T17:34:26;95882.41;;;14.81;63.64
22582;BME280;47125;48.542;9.052;2024-02-15T17:44:33;95895.28;;;14.74;63.58
22582;BME280;47125;48.542;9.052;2024-02-15T17:54:35;95904.41;;;14.68;63.45
22582;BME280;47125;48.542;9.052;2024-02-15T18:04:39;95900.88;;;14.57;62.66
22582;BME280;47125;48.542;9.052;2024-02-15T18:14:43;95908.41;;;14.55;61.77
22582;BME280;47125;48.542;9.052;2024-02-15T18:24:47;95902.72;;;14.47;61.83
22582;BME280;47125;48.542;9.052;2024-02-15T18:34:49;95907.75;;;14.33;62.22
22582;BME280;47125;48.542;9.052;2024-02-15T18:44:53;95893.47;;;14.22;62.81
22582;BME280;47125;48.542;9.052;2024-02-15T18:54:56;95856.38;;;14.14;61.58
22582;BME280;47125;48.542;9.052;2024-02-15T19:05:00;95848.81;;;14.06;62.02
22582;BME280;47125;48.542;9.052;2024-02-15T19:15:12;95851.78;;;14.05;61.97
22582;BME280;47125;48.542;9.052;2024-02-15T19:25:16;95846.09;;;13.96;62.53
22582;BME280;47125;48.542;9.052;2024-02-15T19:35:21;95851.19;;;13.93;63.19
22582;BME280;47125;48.542;9.052;2024-02-15T19:45:25;95842.81;;;13.84;63.09
22582;BME280;47125;48.542;9.052;2024-02-15T19:55:28;95846.84;;;13.82;63.82
22582;BME280;47125;48.542;9.052;2024-02-15T20:05:32;95845.16;;;13.70;64.07
22582;BME280;47125;48.542;9.052;2024-02-15T20:15:34;95819.88;;;13.61;63.66
22582;BME280;47125;48.542;9.052;2024-02-15T20:25:38;95829.34;;;13.79;60.85
22582;BME280;47125;48.542;9.052;2024-02-15T20:35:42;95839.47;;;13.67;62.04
22582;BME280;47125;48.542;9.052;2024-02-15T20:45:46;95832.47;;;13.61;62.51
22582;BME280;47125;48.542;9.052;2024-02-15T20:55:48;95830.47;;;13.36;63.55
22582;BME280;47125;48.542;9.052;2024-02-15T21:05:52;95828.13;;;13.13;64.78
22582;BME280;47125;48.542;9.052;2024-02-15T21:15:55;95833.25;;;13.14;63.88
22582;BME280;47125;48.542;9.052;2024-02-15T21:25:59;95834.72;;;13.00;63.99
22582;BME280;47125;48.542;9.052;2024-02-15T21:36:01;95837.94;;;13.02;64.71
22582;BME280;47125;48.542;9.052;2024-02-15T21:46:05;95821.84;;;12.97;65.26
22582;BME280;47125;48.542;9.052;2024-02-15T21:56:08;95817.25;;;12.98;65.68
22582;BME280;47125;48.542;9.052;2024-02-15T22:06:12;95803.75;;;12.83;66.43
22582;BME280;47125;48.542;9.052;2024-02-15T22:16:15;95794.44;;;12.90;66.90
22582;BME280;47125;48.542;9.052;2024-02-15T22:26:19;95797.78;;;12.70;68.33
22582;BME280;47125;48.542;9.052;2024-02-15T22:36:22;95787.97;;;12.86;67.51
22582;BME280;47125;48.542;9.052;2024-02-15T22:46:26;95776.19;;;12.87;66.89
22582;BME280;47125;48.542;9.052;2024-02-15T22:56:28;95777.53;;;12.90;65.27
22582;BME280;47125;48.542;9.052;2024-02-15T23:06:38;95779.59;;;12.78;65.77
22582;BME280;47125;48.542;9.052;2024-02-15T23:16:41;95792.41;;;12.70;66.12
22582;BME280;47125;48.542;9.052;2024-02-15T23:26:45;95801.69;;;12.63;65.56
22582;BME280;47125;48.542;9.052;2024-02-15T23:36:50;95801.47;;;12.64;64.20
22582;BME280;47125;48.542;9.052;2024-02-15T23:47:11;95803.06;;;12.65;63.39
22582;BME280;47125;48.542;9.052;2024-02-15T23:57:13;95814.34;;;12.67;64.01
